Latest Coastal Weather Observations for Cape Otway

IDT60701

Issued at 6:12 pm EDT Wednesday 22 November 2017 (issued every 10 minutes, with the page automatically refreshed every 10 minutes)

About coastal observations | Map of coastal stations | Coastal observations for TAS | Marine services | Other Formats
Station Details ID: 090015 Name: CAPE OTWAY LIGHTHOUSE Lat: -38.86 Lon: 143.51 Height: 82.0 m
Data from the previous 72 hours. | See also: Recent months at Cape Otway
Date/Time
EDT
Temp
°C
Wind Pressure Rain since
9am
mm
Weather Cloud Vis
km
Sea
Height
m
Swell
Dir  Spd
kts
Gust
kts
hPa Trend Height
m
Period
s
Dir
22/06:00pm 20.1 ENE 19 26 1013.1 - 0.0 - - - - - - -
22/05:30pm 20.6 ENE 17 24 1013.2 - 0.0 - - - - - - -
22/05:00pm 21.1 ENE 16 23 1013.2 - 0.0 - - - - - - -
22/04:30pm 21.9 ENE 17 26 1013.3 - 0.0 - - - - - - -
22/04:23pm 21.5 ENE 16 26 1013.3 - 0.0 - - - - - - -
22/04:00pm 22.1 ENE 16 21 1013.5 - 0.0 - - - - - - -
22/03:44pm 22.0 ENE 16 26 1013.6 - 0.0 - - - - - - -
22/03:30pm 22.3 ENE 17 24 1013.6 - 0.0 - - - - - - -
22/03:00pm 22.6 ENE 14 21 1014.0 - 0.0 - - - - - - -
22/02:30pm 22.7 ENE 15 21 1014.4 - 0.0 - - - - - - -
22/02:00pm 22.2 ENE 16 24 1014.5 - 0.0 - - - - - - -
22/01:30pm 20.2 ENE 13 21 1014.8 - 0.0 - - - - - - -
22/01:00pm 21.6 ENE 14 19 1015.1 - 0.0 - - - - - - -
22/12:30pm 20.9 ENE 13 19 1015.4 - 0.0 - - - - - - -
22/12:00pm 21.5 ENE 13 17 1015.4 - 0.0 - - - - - - -
22/11:30am 23.1 ENE 12 16 1015.5 - 0.0 - - - - - - -
22/11:00am 21.7 E 12 16 1015.7 - 0.0 - - - - - - -
22/10:30am 20.6 E 11 15 1015.7 - 0.0 - - - - - - -
22/10:00am 22.0 E 9 14 1015.7 - 0.0 - - - - - - -
22/09:30am 23.0 E 10 14 1015.5 - 0.0 - - - - - - -
22/09:00am 23.6 E 7 9 1015.6 - 0.0 - - - - - - -
22/08:30am 25.8 NE 7 10 1015.5 - 0.0 - - - - - - -
22/08:28am 25.5 ENE 7 10 1015.5 - 0.0 - - - - - - -
22/08:10am 20.5 ENE 8 16 1015.4 - 0.0 - - - - - - -
22/08:00am 26.1 NE 7 10 1015.4 - 0.0 - - - - - - -
22/07:30am 24.9 NNE 9 12 1015.1 - 0.0 - - - - - - -
22/07:00am 23.5 NNE 10 13 1015.0 - 0.0 - - - - - - -
22/06:30am 21.5 NNE 10 12 1015.0 - 0.0 - - - - - - -
22/06:00am 21.5 NE 10 11 1014.9 - 0.0 - - - - - - -
22/05:30am 21.5 NNE 10 12 1014.9 - 0.0 - - - - - - -
22/05:00am 21.7 NNE 11 13 1014.6 - 0.0 - - - - - - -
22/04:30am 22.7 NNE 11 13 1014.6 - 0.0 - - - - - - -
22/04:00am 22.8 NE 11 13 1014.7 - 0.0 - - - - - - -
22/03:30am 22.9 NE 10 13 1014.9 - 0.0 - - - - - - -
22/03:00am 23.2 NE 12 16 1015.0 - 0.0 - - - - - - -
22/02:30am 23.5 NE 13 16 1015.1 - 0.0 - - - - - - -
22/02:00am 23.3 NE 13 16 1015.4 - 0.0 - - - - - - -
22/01:30am 22.2 NE 13 16 1015.6 - 0.0 - - - - - - -
22/01:00am 21.8 NE 15 18 1015.9 - 0.0 - - - - - - -
22/12:30am 22.3 NE 15 18 1016.2 - 0.0 - - - - - - -
22/12:00am 22.1 NE 15 20 1016.4 - 0.0 - - - - - - -
 
Date/Time
EDT
Temp
°C
Wind Pressure Rain since
9am
mm
Weather Cloud Vis
km
Sea
Height
m
Swell
Dir  Spd
kts
Gust
kts
hPa Trend Height
m
Period
s
Dir
21/11:30pm 22.4 NE 16 20 1016.6 - 0.0 - - - - - - -
21/11:00pm 22.4 NE 16 21 1016.9 - 0.0 - - - - - - -
21/10:30pm 21.8 NE 15 19 1017.2 - 0.0 - - - - - - -
21/10:00pm 20.9 NE 14 18 1017.3 - 0.0 - - - - - - -
21/09:30pm 20.3 NE 15 19 1017.2 - 0.0 - - - - - - -
21/09:00pm 19.8 ENE 14 19 1017.1 - 0.0 - - - - - - -
21/08:30pm 20.6 NE 14 19 1017.1 - 0.0 - - - - - - -
21/08:00pm 20.2 ENE 14 21 1017.1 - 0.0 - - - - - - -
21/07:30pm 20.1 ENE 14 18 1017.1 - 0.0 - - - - - - -
21/07:00pm 19.1 E 12 17 1017.1 - 0.0 - - - - - - -
21/06:30pm 19.4 E 11 15 1017.1 - 0.0 - - - - - - -
21/06:00pm 19.2 E 9 13 1017.2 - 0.0 - - - - - - -
21/05:30pm 20.0 E 10 16 1017.3 - 0.0 - - - - - - -
21/05:00pm 19.7 E 12 17 1017.4 - 0.0 - - - - - - -
21/04:30pm 19.5 E 12 18 1017.7 - 0.0 - - - - - - -
21/04:00pm 19.8 E 12 16 1017.9 - 0.0 - - - - - - -
21/03:30pm 19.9 E 13 17 1018.0 - 0.0 - - - - - - -
21/03:00pm 19.8 E 8 13 1018.3 - 0.0 - - - - - - -
21/02:30pm 20.5 E 7 10 1018.4 - 0.0 - - - - - - -
21/02:00pm 19.5 E 9 15 1018.6 - 0.0 - - - - - - -
21/01:30pm 20.3 E 12 17 1019.0 - 0.0 - - - - - - -
21/01:00pm 20.0 E 10 16 1019.3 - 0.0 - - - - - - -
21/12:30pm 20.1 E 10 16 1019.5 - 0.0 - - - - - - -
21/12:00pm 20.0 E 9 13 1019.8 - 0.0 - - - - - - -
21/11:30am 20.2 E 9 13 1019.9 - 0.0 - - - - - - -
21/11:00am 20.7 E 9 14 1020.1 - 0.0 - - - - - - -
21/10:30am 20.7 E 10 15 1020.2 - 0.0 - - - - - - -
21/10:00am 21.1 E 10 13 1020.3 - 0.0 - - - - - - -
21/09:30am 22.5 E 8 13 1020.3 - 0.0 - - - - - - -
21/09:00am 20.3 E 9 12 1020.2 - 0.0 - - - - - - -
21/08:30am 21.4 ENE 9 14 1020.2 - 0.0 - - - - - - -
21/08:00am 19.4 ENE 9 11 1020.1 - 0.0 - - - - - - -
21/07:30am 19.0 NE 9 13 1019.8 - 0.0 - - - - - - -
21/07:00am 18.3 ENE 11 14 1019.7 - 0.0 - - - - - - -
21/06:30am 19.7 NE 9 13 1019.5 - 0.0 - - - - - - -
21/06:00am 20.0 NE 11 14 1019.3 - 0.0 - - - - - - -
21/05:30am 20.5 NE 11 13 1018.9 - 0.0 - - - - - - -
21/05:00am 21.1 NE 11 13 1018.9 - 0.0 - - - - - - -
21/04:30am 20.6 NE 13 17 1018.8 - 0.0 - - - - - - -
21/04:00am 19.6 NE 14 16 1018.8 - 0.0 - - - - - - -
21/03:30am 19.8 NE 14 17 1018.9 - 0.0 - - - - - - -
21/03:00am 19.9 NE 15 19 1018.9 - 0.0 - - - - - - -
21/02:30am 19.9 NE 15 20 1019.1 - 0.0 - - - - - - -
21/02:00am 20.5 NE 16 21 1019.2 - 0.0 - - - - - - -
21/01:30am 20.5 NE 16 21 1019.5 - 0.0 - - - - - - -
21/01:00am 20.4 NE 16 21 1019.9 - 0.0 - - - - - - -
21/12:30am 20.2 NE 15 20 1020.1 - 0.0 - - - - - - -
21/12:00am 20.1 NE 16 22 1020.3 - 0.0 - - - - - - -
 
Date/Time
EDT
Temp
°C
Wind Pressure Rain since
9am
mm
Weather Cloud Vis
km
Sea
Height
m
Swell
Dir  Spd
kts
Gust
kts
hPa Trend Height
m
Period
s
Dir
20/11:30pm 19.8 NE 16 21 1020.4 - 0.0 - - - - - - -
20/11:00pm 19.2 NE 15 23 1020.7 - 0.0 - - - - - - -
20/10:30pm 18.8 ENE 14 19 1021.0 - 0.0 - - - - - - -
20/10:00pm 18.8 ENE 14 17 1021.1 - 0.0 - - - - - - -
20/09:30pm 18.7 ENE 13 17 1021.0 - 0.0 - - - - - - -
20/09:00pm 18.7 ENE 13 17 1020.6 - 0.0 - - - - - - -
20/08:30pm 18.3 ENE 13 17 1020.6 - 0.0 - - - - - - -
20/08:00pm 18.2 ENE 12 15 1020.6 - 0.0 - - - - - - -
20/07:30pm 18.4 ENE 12 16 1020.5 - 0.0 - - - - - - -
20/07:00pm 19.0 E 11 16 1020.3 - 0.0 - - - - - - -
20/06:30pm 19.3 E 11 17 1020.2 - 0.0 - - - - - - -
20/06:00pm 19.5 E 12 17 1020.1 - 0.0 - - - - - - -
20/05:30pm 19.5 E 8 11 1020.2 - 0.0 - - - - - - -
20/05:00pm 20.1 E 11 15 1020.2 - 0.0 - - - - - - -
20/04:30pm 19.9 E 13 15 1020.4 - 0.0 - - - - - - -
20/04:00pm 22.6 E 11 14 1020.4 - 0.0 - - - - - - -
20/03:30pm 20.6 E 11 13 1020.7 - 0.0 - - - - - - -
20/03:00pm 19.8 E 11 13 1021.1 - 0.0 - - - - - - -
20/02:30pm 20.5 E 11 13 1021.3 - 0.0 - - - - - - -
20/02:00pm 19.4 E 9 13 1021.7 - 0.0 - - - - - - -
20/01:30pm 19.4 E 7 9 1021.9 - 0.0 - - - - - - -
20/01:00pm 19.3 E 7 11 1022.1 - 0.0 - - - - - - -
20/12:30pm 19.3 E 8 11 1022.3 - 0.0 - - - - - - -
20/12:00pm 18.9 E 8 10 1022.5 - 0.0 - - - - - - -
20/11:30am 18.3 E 8 10 1022.5 - 0.0 - - - - - - -
20/11:00am 18.3 E 9 12 1022.6 - 0.0 - - - - - - -
20/10:30am 18.6 E 8 12 1022.7 - 0.0 - - - - - - -
20/10:00am 19.7 E 5 8 1022.7 - 0.0 - - - - - - -
20/09:30am 18.5 E 6 9 1022.9 - 0.0 - - - - - - -
20/09:00am 17.6 E 8 11 1022.9 - 0.0 - - - - - - -
20/08:30am 17.9 E 7 10 1022.8 - 0.0 - - - - - - -
20/08:00am 16.6 ENE 9 11 1022.5 - 0.0 - - - - - - -
20/07:30am 16.3 NE 11 15 1022.2 - 0.0 - - - - - - -
20/07:00am 15.7 ENE 11 15 1021.9 - 0.0 - - - - - - -
20/06:30am 15.3 ENE 11 14 1021.5 - 0.0 - - - - - - -
20/06:00am 15.2 ENE 11 14 1021.3 - 0.0 - - - - - - -
20/05:30am 15.5 NE 12 14 1021.1 - 0.0 - - - - - - -
20/05:00am 15.6 ENE 13 15 1020.8 - 0.0 - - - - - - -
20/04:30am 15.9 ENE 12 15 1021.0 - 0.0 - - - - - - -
20/04:00am 16.0 ENE 11 14 1021.0 - 0.0 - - - - - - -
20/03:30am 15.9 ENE 11 13 1020.8 - 0.0 - - - - - - -
20/03:00am 16.1 ENE 11 14 1020.7 - 0.0 - - - - - - -
20/02:30am 15.9 ENE 11 15 1020.5 - 0.0 - - - - - - -
20/02:00am 16.1 ENE 11 14 1020.6 - 0.0 - - - - - - -
20/01:30am 16.3 ENE 13 15 1020.8 - 0.0 - - - - - - -
20/01:00am 16.5 ENE 12 14 1020.8 - 0.0 - - - - - - -
20/12:30am 16.8 ENE 12 15 1020.8 - 0.0 - - - - - - -
20/12:00am 16.9 ENE 12 15 1021.0 - 0.0 - - - - - - -
 
Date/Time
EDT
Temp
°C
Wind Pressure Rain since
9am
mm
Weather Cloud Vis
km
Sea
Height
m
Swell
Dir  Spd
kts
Gust
kts
hPa Trend Height
m
Period
s
Dir
19/11:30pm 17.2 E 11 15 1021.1 - 0.0 - - - - - - -
19/11:00pm 17.6 ENE 13 17 1021.0 - 0.0 - - - - - - -
19/10:30pm 17.8 ENE 14 19 1020.8 - 0.0 - - - - - - -
19/10:00pm 17.7 NE 14 19 1020.6 - 0.0 - - - - - - -
19/09:30pm 17.9 ENE 13 17 1020.6 - 0.0 - - - - - - -
19/09:00pm 18.3 NE 13 18 1020.4 - 0.0 - - - - - - -
19/08:30pm 18.3 ENE 15 19 1020.1 - 0.0 - - - - - - -
19/08:00pm 18.8 ENE 14 20 1019.9 - 0.0 - - - - - - -
19/07:30pm 19.5 ENE 15 21 1019.6 - 0.0 - - - - - - -
19/07:00pm 20.0 ENE 14 21 1019.6 - 0.0 - - - - - - -
19/06:30pm 20.4 ENE 13 18 1019.5 - 0.0 - - - - - - -

Other Formats:

Comma delimited format used in spreadsheet applications
http://www.bom.gov.au/fwo/IDT60701/IDT60701.94842.axf

JavaScript Object Notation format (JSON) in row-major order
http://www.bom.gov.au/fwo/IDT60701/IDT60701.94842.json